Time;durP1;ratioP1;P1;durP2;ratioP2;P2;SDS_P1;SDS_P2;PMS_P1;PMS_P2;Temp;Humidity;BMP_temperature;BMP_pressure;BME280_temperature;BME280_humidity;BME280_pressure;Samples;Min_cycle;Max_cycle;Signal;HPM_P1;HPM_P2
2021/12/21 00:00:12;;;;;;;17.07;15.27;;;;;;;-1.68;100.00;101716.78;4995053;28;20222;-78
2021/12/21 00:02:40;;;;;;;21.63;15.23;;;;;;;-1.74;100.00;101735.25;4992461;28;20306;-78
2021/12/21 00:05:08;;;;;;;18.73;14.60;;;;;;;-1.76;100.00;101735.94;4994825;28;20744;-81
2021/12/21 00:07:35;;;;;;;21.30;16.63;;;;;;;-1.76;100.00;101734.28;4998094;28;20260;-78
2021/12/21 00:10:01;;;;;;;20.70;17.77;;;;;;;-1.78;100.00;101723.09;4998910;28;20206;-81
2021/12/21 00:12:31;;;;;;;25.87;19.57;;;;;;;-1.67;100.00;101708.28;4998612;28;20227;-79
2021/12/21 00:15:02;;;;;;;25.40;20.60;;;;;;;-1.54;100.00;101705.56;4997640;28;20202;-80
2021/12/21 00:17:46;;;;;;;31.17;21.13;;;;;;;-1.47;100.00;101692.25;4998951;28;20673;-81
2021/12/21 00:20:28;;;;;;;22.17;16.87;;;;;;;-1.40;100.00;101698.56;4998496;28;20606;-80
2021/12/21 00:25:34;;;;;;;25.77;16.70;;;;;;;-1.64;100.00;101722.13;4982390;28;20566;-81
2021/12/21 00:28:02;;;;;;;22.63;17.13;;;;;;;-1.70;100.00;101715.81;4999416;28;20206;-81
2021/12/21 00:30:29;;;;;;;19.43;16.53;;;;;;;-1.97;100.00;101725.50;4998543;28;20632;-81
2021/12/21 00:32:55;;;;;;;16.13;14.43;;;;;;;-2.20;99.94;101745.59;4998309;28;20262;-81
2021/12/21 00:35:23;;;;;;;17.03;14.40;;;;;;;-2.33;99.63;101758.53;4998393;28;20213;-81
2021/12/21 00:37:49;;;;;;;19.93;17.43;;;;;;;-2.26;100.00;101735.94;4999162;28;20199;-80
2021/12/21 00:40:16;;;;;;;31.53;18.87;;;;;;;-2.13;100.00;101713.56;4999034;28;20230;-80
2021/12/21 00:42:42;;;;;;;24.60;20.47;;;;;;;-2.04;100.00;101691.91;4997916;28;20776;-81
2021/12/21 00:45:09;;;;;;;22.50;18.30;;;;;;;-2.02;100.00;101695.44;4998876;28;20226;-81
2021/12/21 00:47:40;;;;;;;18.67;15.87;;;;;;;-2.02;100.00;101705.66;4998710;28;20203;-81
2021/12/21 00:50:16;;;;;;;19.03;17.10;;;;;;;-1.97;100.00;101721.25;4998960;28;20186;-80
2021/12/21 00:52:44;;;;;;;18.87;16.43;;;;;;;-1.89;100.00;101729.31;4997535;28;20335;-81
2021/12/21 00:55:11;;;;;;;20.57;15.67;;;;;;;-1.99;100.00;101738.19;4998860;28;20237;-82
2021/12/21 00:57:37;;;;;;;19.63;14.20;;;;;;;-2.12;99.44;101753.69;4998267;28;20233;-81
2021/12/21 01:00:05;;;;;;;17.97;14.17;;;;;;;-2.21;99.00;101771.97;4998386;28;20214;-80
2021/12/21 01:02:32;;;;;;;19.00;14.50;;;;;;;-2.21;98.66;101779.66;4998400;28;20284;-81
2021/12/21 01:04:59;;;;;;;17.80;14.53;;;;;;;-2.16;99.05;101777.34;4997156;28;20206;-80
2021/12/21 01:07:32;;;;;;;15.67;14.07;;;;;;;-2.11;98.67;101781.03;4997535;28;20247;-81
2021/12/21 01:10:36;;;;;;;16.13;13.53;;;;;;;-2.26;98.37;101791.28;4997475;28;20767;-80
2021/12/21 01:13:12;;;;;;;14.80;13.30;;;;;;;-2.30;97.98;101807.25;4996820;28;20218;-81
2021/12/21 01:15:55;;;;;;;15.27;13.20;;;;;;;-2.44;97.65;101816.72;4996924;28;20681;-81
2021/12/21 01:18:26;;;;;;;20.30;13.47;;;;;;;-2.63;97.71;101813.16;4997362;28;20285;-83
2021/12/21 01:21:04;;;;;;;15.13;13.63;;;;;;;-2.88;98.30;101815.97;4995544;28;20326;-82
2021/12/21 01:26:05;;;;;;;14.77;13.37;;;;;;;-3.06;99.26;101780.03;5032516;23;20233;-80
2021/12/21 01:28:40;;;;;;;18.03;16.03;;;;;;;-3.07;99.88;101757.84;5008525;28;20625;-79
2021/12/21 01:31:19;;;;;;;20.17;15.50;;;;;;;-3.06;100.00;101740.84;5014871;28;20229;-77
2021/12/21 01:33:57;;;;;;;17.77;15.77;;;;;;;-3.08;100.00;101722.00;5015310;28;20195;-78
2021/12/21 01:36:30;;;;;;;17.83;15.60;;;;;;;-3.05;100.00;101707.72;5014805;28;20266;-78
2021/12/21 01:39:04;;;;;;;20.33;17.53;;;;;;;-2.99;100.00;101689.31;5015169;28;20217;-78
2021/12/21 01:41:38;;;;;;;19.77;16.93;;;;;;;-2.99;100.00;101684.22;5006689;28;20214;-79
2021/12/21 01:44:17;;;;;;;20.17;17.83;;;;;;;-2.92;100.00;101678.63;5016032;28;20707;-79
2021/12/21 01:49:38;;;;;;;25.03;17.43;;;;;;;-2.89;100.00;101680.50;5014744;28;20228;-80
2021/12/21 01:52:06;;;;;;;25.13;17.80;;;;;;;-2.74;100.00;101670.22;5014660;28;20287;-80
2021/12/21 01:54:32;;;;;;;19.13;16.90;;;;;;;-2.74;100.00;101670.22;5014863;28;20224;-78
2021/12/21 01:57:00;;;;;;;27.53;20.27;;;;;;;-2.63;100.00;101670.03;5014903;28;20257;-78
2021/12/21 01:59:27;;;;;;;17.67;15.63;;;;;;;-2.62;100.00;101673.44;5015049;28;20208;-78
2021/12/21 02:01:53;;;;;;;17.60;14.87;;;;;;;-2.83;100.00;101689.38;5014693;28;20219;-78
2021/12/21 02:04:20;;;;;;;15.80;14.20;;;;;;;-2.86;100.00;101707.06;5015188;28;20249;-78
2021/12/21 02:06:48;;;;;;;18.17;14.87;;;;;;;-2.79;99.32;101710.88;5015361;28;20676;-79
2021/12/21 02:09:15;;;;;;;14.03;12.53;;;;;;;-2.71;98.93;101724.06;5015536;28;20264;-79
2021/12/21 02:11:42;;;;;;;16.17;13.40;;;;;;;-2.71;98.48;101740.28;5014852;28;20711;-79
2021/12/21 02:14:10;;;;;;;16.50;12.77;;;;;;;-2.86;97.76;101764.97;5015480;28;20225;-78
2021/12/21 02:16:47;;;;;;;14.73;13.07;;;;;;;-2.77;97.99;101775.72;5016016;28;20206;-79
2021/12/21 02:19:21;;;;;;;18.60;14.53;;;;;;;-2.75;97.86;101779.22;5015970;28;20196;-78
2021/12/21 02:21:52;;;;;;;18.07;13.57;;;;;;;-2.71;97.43;101781.16;5015543;28;20241;-79
2021/12/21 02:24:23;;;;;;;14.43;13.03;;;;;;;-2.54;97.45;101783.78;5014997;28;20233;-79
2021/12/21 02:26:54;;;;;;;14.90;12.30;;;;;;;-2.39;96.97;101782.09;5015675;28;20201;-78
2021/12/21 02:29:28;;;;;;;14.37;12.77;;;;;;;-2.22;96.60;101795.78;5015620;28;20602;-79
2021/12/21 02:31:55;;;;;;;16.10;12.93;;;;;;;-2.54;95.78;101828.09;5007357;28;20215;-78
2021/12/21 02:34:23;;;;;;;14.30;11.93;;;;;;;-2.91;96.25;101828.56;5015168;28;20229;-78
2021/12/21 02:36:53;;;;;;;14.13;12.70;;;;;;;-3.07;96.72;101810.56;5015977;28;20205;-79
2021/12/21 02:39:20;;;;;;;13.67;12.23;;;;;;;-3.27;96.96;101794.09;5015955;28;20202;-78
2021/12/21 02:41:46;;;;;;;15.20;13.57;;;;;;;-3.42;98.05;101768.53;5015433;28;20221;-77
2021/12/21 02:44:14;;;;;;;19.00;14.53;;;;;;;-3.46;98.62;101753.84;5015939;28;20221;-78
2021/12/21 02:46:42;;;;;;;17.40;14.10;;;;;;;-3.58;99.83;101722.50;5015885;28;20672;-77
2021/12/21 02:49:11;;;;;;;19.00;15.97;;;;;;;-3.63;100.00;101687.38;5016086;28;20201;-79
2021/12/21 02:51:38;;;;;;;23.33;15.60;;;;;;;-3.69;100.00;101671.69;5016392;28;20233;-78
2021/12/21 02:54:06;;;;;;;19.90;15.73;;;;;;;-3.78;100.00;101667.75;5014942;28;20224;-79
2021/12/21 02:56:32;;;;;;;21.67;15.33;;;;;;;-3.82;100.00;101665.00;5016136;28;20680;-79
2021/12/21 02:58:58;;;;;;;18.50;16.37;;;;;;;-3.71;100.00;101641.78;5016053;28;20255;-78
2021/12/21 03:01:25;;;;;;;24.33;16.87;;;;;;;-3.62;100.00;101629.56;5015778;28;20744;-80
2021/12/21 03:03:52;;;;;;;20.97;15.73;;;;;;;-3.67;100.00;101618.22;5014332;28;20205;-80
2021/12/21 03:06:46;;;;;;;26.03;16.97;;;;;;;-3.71;100.00;101619.69;5017277;28;20675;-80
2021/12/21 03:09:30;;;;;;;23.10;16.47;;;;;;;-3.71;100.00;101627.34;5016573;28;20594;-79
2021/12/21 03:12:08;;;;;;;22.70;15.83;;;;;;;-3.65;100.00;101617.53;5016709;28;20678;-80
2021/12/21 03:14:34;;;;;;;28.27;17.63;;;;;;;-3.64;100.00;101615.84;5017433;28;20226;-80
2021/12/21 03:17:01;;;;;;;20.73;16.33;;;;;;;-3.66;100.00;101625.09;5017467;28;20289;-80
2021/12/21 03:19:27;;;;;;;21.80;16.40;;;;;;;-3.76;100.00;101623.69;5018929;28;20210;-79
2021/12/21 03:21:54;;;;;;;18.90;15.90;;;;;;;-3.76;100.00;101613.47;5033422;28;20213;-79
2021/12/21 03:24:21;;;;;;;17.70;15.77;;;;;;;-3.74;100.00;101618.66;5034644;28;20323;-78
2021/12/21 03:26:50;;;;;;;20.07;16.00;;;;;;;-3.77;100.00;101619.34;5034059;28;20209;-79
2021/12/21 03:29:17;;;;;;;18.27;15.77;;;;;;;-3.82;100.00;101623.31;5027526;28;20649;-79
2021/12/21 03:31:43;;;;;;;19.47;15.37;;;;;;;-3.80;100.00;101624.28;5016215;28;20205;-79
2021/12/21 03:34:10;;;;;;;24.90;16.20;;;;;;;-3.80;100.00;101622.63;5016424;28;20225;-80
2021/12/21 03:36:37;;;;;;;16.50;14.80;;;;;;;-3.82;100.00;101629.28;5016313;28;20263;-79
2021/12/21 03:39:04;;;;;;;16.60;14.37;;;;;;;-3.87;100.00;101638.34;5016174;28;20678;-78
2021/12/21 03:41:33;;;;;;;21.47;15.10;;;;;;;-3.90;100.00;101635.63;5018917;28;20249;-78
2021/12/21 03:44:00;;;;;;;20.87;15.63;;;;;;;-3.94;100.00;101635.31;5015312;28;20224;-79
2021/12/21 03:46:27;;;;;;;26.77;16.47;;;;;;;-3.96;100.00;101632.72;5014913;28;20204;-79
2021/12/21 03:48:53;;;;;;;22.50;15.47;;;;;;;-3.93;100.00;101622.69;5015339;28;20202;-78
2021/12/21 03:51:21;;;;;;;20.73;16.53;;;;;;;-3.87;100.00;101611.97;5014673;28;20251;-78
2021/12/21 03:53:49;;;;;;;18.27;16.23;;;;;;;-3.87;100.00;101619.59;5013892;28;20808;-79
2021/12/21 03:56:37;;;;;;;17.07;15.30;;;;;;;-3.89;100.00;101608.44;5015108;28;20220;-79
2021/12/21 03:59:05;;;;;;;15.97;14.23;;;;;;;-3.83;100.00;101596.03;5015832;28;20196;-79
2021/12/21 04:01:32;;;;;;;22.23;16.80;;;;;;;-3.76;100.00;101599.84;5014218;28;20293;-79
2021/12/21 04:03:58;;;;;;;25.77;17.43;;;;;;;-3.69;100.00;101597.72;5015678;28;20217;-80
2021/12/21 04:06:25;;;;;;;20.07;15.20;;;;;;;-3.47;100.00;101581.97;5014933;28;20257;-79
2021/12/21 04:08:51;;;;;;;22.93;15.03;;;;;;;-3.51;100.00;101595.31;5015252;28;20256;-79
2021/12/21 04:11:18;;;;;;;16.30;14.60;;;;;;;-3.51;100.00;101605.53;5015081;28;20201;-79
2021/12/21 04:13:44;;;;;;;20.43;15.43;;;;;;;-3.37;100.00;101613.97;5006956;28;20225;-79
2021/12/21 04:16:12;;;;;;;19.63;15.80;;;;;;;-3.23;100.00;101624.94;5015131;28;20259;-80
2021/12/21 04:18:39;;;;;;;16.10;14.50;;;;;;;-3.07;100.00;101630.16;5013933;28;20213;-80
2021/12/21 04:21:11;;;;;;;15.27;13.67;;;;;;;-2.90;100.00;101646.38;5013248;28;20205;-77
2021/12/21 04:23:38;;;;;;;15.77;14.17;;;;;;;-2.73;99.89;101664.34;5013238;28;20202;-78
2021/12/21 04:26:04;;;;;;;15.23;13.60;;;;;;;-2.64;98.46;101703.16;5013679;28;20223;-80
2021/12/21 04:28:31;;;;;;;14.57;13.13;;;;;;;-2.63;97.42;101741.59;5014363;28;20257;-79
2021/12/21 04:30:57;;;;;;;13.27;12.07;;;;;;;-2.57;96.51;101768.28;5014495;28;20260;-80
2021/12/21 04:33:24;;;;;;;17.53;12.87;;;;;;;-2.58;96.03;101797.19;5014405;28;20206;-79
2021/12/21 04:35:51;;;;;;;14.00;12.63;;;;;;;-2.58;95.40;101823.63;5014746;28;20217;-79
2021/12/21 04:38:22;;;;;;;13.57;12.33;;;;;;;-2.56;94.97;101839.06;5015034;28;20202;-79
2021/12/21 04:40:54;;;;;;;15.03;13.03;;;;;;;-3.27;94.70;101858.81;5015215;28;20212;-79
2021/12/21 04:43:21;;;;;;;15.47;12.63;;;;;;;-3.60;95.54;101839.78;5014738;28;20193;-79
2021/12/21 04:45:47;;;;;;;15.30;12.90;;;;;;;-3.75;96.25;101811.66;5014261;28;20248;-79
2021/12/21 04:48:14;;;;;;;15.87;13.20;;;;;;;-3.84;96.41;101795.81;5014915;28;20200;-78
2021/12/21 04:50:43;;;;;;;18.40;14.80;;;;;;;-3.99;97.67;101763.44;5014606;28;20257;-78
2021/12/21 04:53:09;;;;;;;21.73;14.80;;;;;;;-4.04;98.81;101729.16;5015490;28;20810;-78
2021/12/21 04:55:36;;;;;;;15.80;14.20;;;;;;;-3.99;98.95;101717.53;5017994;28;20224;-78
2021/12/21 04:58:03;;;;;;;15.87;13.70;;;;;;;-3.84;98.66;101709.94;5018087;28;20202;-79
2021/12/21 05:00:30;;;;;;;16.03;13.23;;;;;;;-3.82;98.43;101708.38;5019105;28;20206;-79
2021/12/21 05:02:57;;;;;;;17.43;13.40;;;;;;;-3.93;97.97;101718.72;5017474;28;20223;-79
2021/12/21 05:05:23;;;;;;;15.83;13.90;;;;;;;-4.09;98.16;101720.31;5018387;28;20226;-79
2021/12/21 05:08:03;;;;;;;17.47;14.00;;;;;;;-4.33;99.15;101711.19;5017983;28;20263;-78
2021/12/21 05:10:30;;;;;;;24.07;16.80;;;;;;;-4.46;100.00;101687.50;5017659;28;20205;-78
2021/12/21 05:12:56;;;;;;;19.43;15.10;;;;;;;-4.56;100.00;101664.75;5016816;28;20206;-78
2021/12/21 05:15:22;;;;;;;32.07;17.23;;;;;;;-4.60;100.00;101650.06;5017391;28;20291;-78
2021/12/21 05:17:49;;;;;;;26.93;17.50;;;;;;;-4.66;100.00;101642.06;5018566;28;20208;-77
2021/12/21 05:20:15;;;;;;;27.67;17.80;;;;;;;-4.67;100.00;101642.84;5017507;28;20252;-78
2021/12/21 05:22:41;;;;;;;22.63;16.03;;;;;;;-4.65;100.00;101626.88;5017262;28;20230;-78
2021/12/21 05:25:10;;;;;;;22.73;15.90;;;;;;;-4.65;100.00;101631.09;5016793;28;20235;-78
2021/12/21 05:27:36;;;;;;;21.87;16.73;;;;;;;-4.66;100.00;101625.13;5017482;28;20204;-78
2021/12/21 05:30:04;;;;;;;31.03;16.33;;;;;;;-4.69;100.00;101629.16;5017410;28;20203;-78
2021/12/21 05:32:30;;;;;;;25.63;16.83;;;;;;;-4.69;100.00;101618.97;5016898;28;20205;-78
2021/12/21 05:34:56;;;;;;;20.27;15.50;;;;;;;-4.71;100.00;101621.41;5017252;28;20233;-78
2021/12/21 05:37:22;;;;;;;21.93;16.07;;;;;;;-4.74;100.00;101621.19;5017859;28;20206;-78
2021/12/21 05:39:56;;;;;;;27.03;15.93;;;;;;;-4.69;100.00;101613.88;5016479;28;20208;-78
2021/12/21 05:42:25;;;;;;;22.13;16.87;;;;;;;-4.72;100.00;101619.63;5016748;28;20261;-78
2021/12/21 05:44:51;;;;;;;26.27;15.90;;;;;;;-4.61;100.00;101616.09;5016105;28;20611;-81
2021/12/21 05:47:18;;;;;;;24.90;15.97;;;;;;;-4.43;100.00;101618.00;5018034;28;20634;-79
2021/12/21 05:49:46;;;;;;;19.83;15.77;;;;;;;-4.50;100.00;101626.94;5018862;28;20210;-79
2021/12/21 05:52:12;;;;;;;24.70;15.97;;;;;;;-4.59;100.00;101629.78;5018065;28;20713;-79
2021/12/21 05:54:39;;;;;;;22.23;16.00;;;;;;;-4.66;100.00;101637.88;5017858;28;20237;-80
2021/12/21 05:57:06;;;;;;;22.13;15.30;;;;;;;-4.72;100.00;101640.00;5018211;28;20201;-79
2021/12/21 05:59:33;;;;;;;21.17;15.77;;;;;;;-4.79;100.00;101628.56;5018147;28;20625;-80
2021/12/21 06:02:00;;;;;;;31.97;17.87;;;;;;;-4.81;100.00;101624.16;5018072;28;20228;-78
2021/12/21 06:04:26;;;;;;;22.30;17.53;;;;;;;-4.85;100.00;101610.38;5016681;28;20228;-78
2021/12/21 06:06:53;;;;;;;21.57;17.17;;;;;;;-4.86;100.00;101611.13;5018193;28;20335;-78
2021/12/21 06:09:20;;;;;;;26.60;17.77;;;;;;;-4.86;100.00;101600.94;5018025;28;20256;-78
2021/12/21 06:11:53;;;;;;;26.23;16.77;;;;;;;-4.78;100.00;101591.25;5017989;28;20267;-80
2021/12/21 06:14:38;;;;;;;26.47;17.10;;;;;;;-4.70;100.00;101595.13;5017505;28;20233;-79
2021/12/21 06:22:45;;;;;;;26.33;15.70;;;;;;;-4.76;100.00;101606.63;5010829;28;20348;-77
2021/12/21 06:25:25;;;;;;;24.13;16.20;;;;;;;-4.65;100.00;101620.91;5016433;28;20231;-79
2021/12/21 06:27:53;;;;;;;25.97;17.80;;;;;;;-4.45;100.00;101619.56;5018583;28;20233;-80
2021/12/21 06:30:19;;;;;;;19.43;15.60;;;;;;;-4.48;100.00;101624.47;5019851;28;20201;-79
2021/12/21 06:32:47;;;;;;;21.57;15.40;;;;;;;-4.54;100.00;101652.13;5018397;28;20201;-79
2021/12/21 06:35:15;;;;;;;20.80;14.00;;;;;;;-4.71;100.00;101663.84;5018192;28;20716;-79
2021/12/21 06:37:42;;;;;;;19.33;14.07;;;;;;;-4.74;100.00;101667.03;5018481;28;20201;-80
2021/12/21 06:40:10;;;;;;;18.33;13.60;;;;;;;-4.78;100.00;101665.09;5017813;28;20576;-79
2021/12/21 06:42:37;;;;;;;23.90;14.63;;;;;;;-4.90;100.00;101662.66;5018060;28;20219;-79
2021/12/21 06:45:12;;;;;;;18.10;14.23;;;;;;;-4.90;100.00;101660.09;5020025;28;20223;-80
2021/12/21 06:53:09;;;;;;;22.20;14.53;;;;;;;-4.55;100.00;101661.44;5019123;28;20201;-79
2021/12/21 06:55:36;;;;;;;19.27;14.10;;;;;;;-4.64;100.00;101681.25;5018919;28;20216;-79
2021/12/21 06:58:03;;;;;;;16.10;14.17;;;;;;;-4.70;99.70;101685.97;5020353;28;20205;-79
2021/12/21 07:00:29;;;;;;;20.70;13.93;;;;;;;-4.78;99.67;101693.13;5019304;28;20600;-79
2021/12/21 07:02:56;;;;;;;19.13;13.10;;;;;;;-4.91;99.91;101693.13;5021424;28;20225;-80
2021/12/21 07:05:23;;;;;;;20.60;15.93;;;;;;;-4.90;100.00;101677.94;5033680;28;20260;-78
2021/12/21 07:07:52;;;;;;;18.30;15.63;;;;;;;-4.97;100.00;101675.81;5034054;28;20197;-79
2021/12/21 07:10:23;;;;;;;25.83;16.57;;;;;;;-5.00;100.00;101673.03;5032490;28;20206;-78
2021/12/21 07:18:29;;;;;;;21.33;15.83;;;;;;;-5.00;100.00;101639.94;5013567;28;20208;-78
2021/12/21 07:20:56;;;;;;;21.03;16.70;;;;;;;-4.94;100.00;101640.34;5014373;28;20276;-78
2021/12/21 07:23:23;;;;;;;24.20;15.90;;;;;;;-4.76;100.00;101642.28;5011695;28;20720;-77
2021/12/21 07:25:50;;;;;;;18.83;15.20;;;;;;;-4.52;100.00;101643.81;5013439;28;20499;-78
2021/12/21 07:28:16;;;;;;;21.33;15.53;;;;;;;-4.33;100.00;101645.78;5014516;28;20235;-79
2021/12/21 07:30:43;;;;;;;17.00;13.67;;;;;;;-4.12;100.00;101665.72;5011070;28;20205;-79
2021/12/21 07:33:09;;;;;;;16.23;13.63;;;;;;;-3.99;99.90;101689.50;5013002;28;20192;-79
2021/12/21 07:35:37;;;;;;;15.80;14.10;;;;;;;-3.89;99.26;101710.47;5012487;28;20783;-79
2021/12/21 07:38:04;;;;;;;13.87;12.47;;;;;;;-3.87;97.90;101744.59;5010571;28;20255;-79
2021/12/21 07:40:32;;;;;;;15.40;13.80;;;;;;;-3.81;97.03;101778.13;5012735;28;20248;-79
2021/12/21 07:43:00;;;;;;;13.33;11.93;;;;;;;-3.74;96.29;101810.88;5011475;28;20272;-78
2021/12/21 07:45:27;;;;;;;13.93;12.53;;;;;;;-3.69;95.45;101831.56;5011687;28;20234;-78
2021/12/21 07:47:54;;;;;;;14.87;13.33;;;;;;;-3.65;95.71;101851.38;5010586;28;20222;-78
2021/12/21 07:50:21;;;;;;;13.77;12.37;;;;;;;-3.56;94.74;101867.25;5011947;28;20668;-78
2021/12/21 07:52:48;;;;;;;13.33;11.93;;;;;;;-3.46;94.25;101889.13;5010714;28;20244;-78
2021/12/21 07:55:14;;;;;;;16.50;11.60;;;;;;;-3.47;93.46;101906.13;5011730;28;20221;-78
2021/12/21 07:57:42;;;;;;;14.40;12.90;;;;;;;-3.44;93.67;101924.16;5010576;28;20210;-78
2021/12/21 08:00:13;;;;;;;13.63;12.23;;;;;;;-3.41;93.04;101932.00;5011589;28;20208;-78
2021/12/21 08:02:40;;;;;;;19.37;12.77;;;;;;;-3.41;92.75;101943.88;5011385;28;20214;-78
2021/12/21 08:05:07;;;;;;;13.70;12.30;;;;;;;-3.36;91.98;101959.50;5011646;28;20779;-78
2021/12/21 08:07:39;;;;;;;13.17;11.33;;;;;;;-3.28;91.68;101978.72;5012409;28;20221;-80
2021/12/21 08:10:19;;;;;;;13.77;12.37;;;;;;;-3.28;91.14;102004.25;5009813;28;20560;-79
2021/12/21 08:12:47;;;;;;;15.77;13.03;;;;;;;-3.22;91.13;102014.84;5009944;28;20214;-80
2021/12/21 08:15:13;;;;;;;15.40;13.80;;;;;;;-3.31;91.02;102014.25;5011940;28;20220;-79
2021/12/21 08:17:39;;;;;;;20.47;15.33;;;;;;;-3.20;90.82;102026.91;5011061;28;20951;-79
2021/12/21 08:20:06;;;;;;;17.77;14.03;;;;;;;-3.20;91.14;102021.81;5011640;28;20244;-78
2021/12/21 08:22:33;;;;;;;16.53;14.20;;;;;;;-3.14;90.96;102015.31;5011654;28;20229;-79
2021/12/21 08:24:59;;;;;;;81.37;40.00;;;;;;;-3.10;91.26;102010.50;5011460;28;20233;-78
2021/12/21 08:27:25;;;;;;;84.07;40.50;;;;;;;-3.17;90.51;102022.78;5013784;28;20267;-79
2021/12/21 08:29:53;;;;;;;26.93;19.10;;;;;;;-3.44;90.48;102031.38;5015836;28;20202;-79
2021/12/21 08:32:20;;;;;;;18.70;14.63;;;;;;;-3.46;90.65;102030.38;5014738;28;20209;-78
2021/12/21 08:34:46;;;;;;;16.23;13.33;;;;;;;-3.34;90.96;102035.38;5013891;28;20215;-79
2021/12/21 08:37:13;;;;;;;16.23;13.30;;;;;;;-3.26;91.15;102028.22;5016368;28;20202;-80
2021/12/21 08:39:40;;;;;;;15.50;12.33;;;;;;;-3.34;90.36;102037.06;5027977;28;20251;-79
2021/12/21 08:42:08;;;;;;;13.57;12.27;;;;;;;-3.45;90.00;102051.69;5020001;23;20620;-80
2021/12/21 08:44:35;;;;;;;15.87;13.60;;;;;;;-3.86;90.47;102044.81;4988273;28;20689;-80
2021/12/21 08:47:03;;;;;;;14.83;13.37;;;;;;;-4.09;92.33;102017.78;4986309;28;20219;-80
2021/12/21 08:49:30;;;;;;;18.93;13.70;;;;;;;-4.12;93.25;101972.56;4988042;28;20635;-80
2021/12/21 08:51:58;;;;;;;18.27;14.17;;;;;;;-3.91;93.79;101944.13;4987706;28;20282;-80
2021/12/21 08:54:25;;;;;;;19.73;14.53;;;;;;;-3.73;93.66;101937.63;4985501;28;20206;-78
2021/12/21 08:56:52;;;;;;;16.53;13.83;;;;;;;-3.53;93.45;101943.13;4987876;28;20211;-80
2021/12/21 08:59:19;;;;;;;15.53;13.37;;;;;;;-3.51;92.79;101954.31;4986490;28;20194;-80
2021/12/21 09:01:46;;;;;;;13.80;12.13;;;;;;;-3.55;92.74;101968.53;4988879;28;20296;-80
2021/12/21 09:04:15;;;;;;;17.03;14.50;;;;;;;-3.41;92.53;101977.06;4984540;28;20226;-80
2021/12/21 09:06:41;;;;;;;16.80;14.53;;;;;;;-3.27;92.04;101970.25;4988147;28;20281;-80
2021/12/21 09:09:09;;;;;;;13.07;11.80;;;;;;;-3.19;91.72;101979.31;4987883;28;20632;-80
2021/12/21 09:11:37;;;;;;;16.23;12.47;;;;;;;-3.10;91.51;101992.63;4988412;28;20223;-80
2021/12/21 09:14:03;;;;;;;15.10;13.17;;;;;;;-3.07;91.33;101992.81;4987208;28;20207;-80
2021/12/21 09:16:30;;;;;;;15.60;12.60;;;;;;;-3.04;91.23;101998.09;4988850;28;20260;-80
2021/12/21 09:18:56;;;;;;;15.33;12.67;;;;;;;-2.96;91.42;102008.78;4988352;28;20628;-79
2021/12/21 09:21:24;;;;;;;14.23;12.83;;;;;;;-2.98;90.74;102012.03;4986772;28;20286;-79
2021/12/21 09:23:50;;;;;;;17.97;13.20;;;;;;;-3.02;90.70;102016.94;4987699;28;20646;-80
2021/12/21 09:26:16;;;;;;;16.67;12.77;;;;;;;-2.92;90.92;102023.50;4987600;28;20256;-80
2021/12/21 09:28:44;;;;;;;17.30;13.90;;;;;;;-2.85;90.44;102027.34;4988977;28;20727;-80
2021/12/21 09:31:10;;;;;;;14.53;13.10;;;;;;;-2.76;90.31;102029.56;4986317;28;20231;-80
2021/12/21 09:33:37;;;;;;;15.60;13.63;;;;;;;-2.75;90.11;102042.44;4987144;28;20199;-81
2021/12/21 09:36:07;;;;;;;15.53;13.03;;;;;;;-2.69;90.25;102041.94;4988903;28;20203;-81
2021/12/21 09:38:35;;;;;;;15.87;12.80;;;;;;;-2.61;90.09;102053.50;4987549;28;20673;-80
2021/12/21 09:41:01;;;;;;;16.93;13.77;;;;;;;-2.60;89.88;102057.81;4985797;28;20287;-80
2021/12/21 09:43:28;;;;;;;13.90;12.33;;;;;;;-2.57;89.54;102065.69;4988695;28;20223;-80
2021/12/21 09:45:54;;;;;;;14.80;13.33;;;;;;;-2.54;89.42;102064.97;4988124;28;20204;-80
2021/12/21 09:48:22;;;;;;;15.77;12.67;;;;;;;-2.52;89.48;102076.16;4987249;28;20203;-80
2021/12/21 09:50:49;;;;;;;16.33;14.27;;;;;;;-2.70;88.97;102086.16;4984381;28;20242;-79
2021/12/21 09:53:15;;;;;;;16.37;14.63;;;;;;;-2.85;90.00;102081.00;4987105;28;20206;-80
2021/12/21 09:55:43;;;;;;;18.13;15.13;;;;;;;-3.10;90.76;102059.03;4986767;28;20214;-80
2021/12/21 09:58:09;;;;;;;17.93;14.80;;;;;;;-3.27;91.71;102027.34;4988714;28;20203;-81
2021/12/21 10:00:35;;;;;;;20.47;16.40;;;;;;;-3.40;92.62;101991.59;4988306;28;20254;-81
2021/12/21 10:03:04;;;;;;;18.10;15.50;;;;;;;-3.46;94.03;101963.16;4986620;28;20285;-79
2021/12/21 10:05:33;;;;;;;18.57;16.67;;;;;;;-3.66;94.80;101931.28;4989933;28;20211;-81
2021/12/21 10:08:03;;;;;;;25.53;18.83;;;;;;;-3.70;96.05;101891.03;4986737;28;20203;-80
2021/12/21 10:10:33;;;;;;;21.43;18.10;;;;;;;-3.61;95.83;101863.53;4985047;28;20206;-80
2021/12/21 10:13:09;;;;;;;26.53;19.97;;;;;;;-3.66;96.36;101854.72;4986723;28;20274;-80
2021/12/21 10:15:39;;;;;;;23.10;17.93;;;;;;;-3.81;97.91;101834.25;4986336;28;20215;-79
2021/12/21 10:18:06;;;;;;;25.67;17.73;;;;;;;-3.72;97.97;101806.75;4986218;28;20317;-79
2021/12/21 10:20:35;;;;;;;28.30;18.60;;;;;;;-3.48;98.33;101786.06;4986439;28;20253;-80
2021/12/21 10:23:08;;;;;;;34.93;24.53;;;;;;;-3.29;97.94;101788.91;4981585;28;20573;-80
2021/12/21 10:25:40;;;;;;;27.00;18.67;;;;;;;-3.06;98.23;101779.16;4984798;28;20260;-80
2021/12/21 10:28:08;;;;;;;22.10;18.23;;;;;;;-2.86;97.79;101798.16;4984199;28;20254;-80
2021/12/21 10:30:34;;;;;;;21.27;17.47;;;;;;;-2.68;97.24;101803.44;4987689;28;20203;-79
2021/12/21 10:33:01;;;;;;;18.87;16.37;;;;;;;-2.55;96.18;101822.94;4988151;28;20208;-78
2021/12/21 10:35:31;;;;;;;17.03;15.07;;;;;;;-2.42;95.68;101843.25;4982364;28;20605;-80
2021/12/21 10:38:01;;;;;;;23.37;16.43;;;;;;;-2.32;94.60;101858.34;4987424;28;20209;-79
2021/12/21 10:40:28;;;;;;;20.77;17.03;;;;;;;-2.22;94.47;101883.66;4293826;28;10000797;-79
2021/12/21 10:42:57;;;;;;;19.80;16.03;;;;;;;-2.10;93.93;101900.44;4982161;28;20685;-79
2021/12/21 10:45:28;;;;;;;21.27;16.17;;;;;;;-1.99;93.30;101914.72;4984513;28;20215;-79
2021/12/21 10:47:55;;;;;;;24.53;16.77;;;;;;;-1.85;93.61;101915.50;4984794;28;20669;-80
2021/12/21 10:50:22;;;;;;;21.47;16.40;;;;;;;-1.82;94.06;101914.00;4982937;28;20208;-80
2021/12/21 10:52:51;;;;;;;19.70;16.30;;;;;;;-1.85;93.45;101915.50;4991000;28;20235;-79
2021/12/21 10:55:23;;;;;;;17.20;15.37;;;;;;;-1.82;92.96;101925.91;4976138;28;20204;-80
2021/12/21 10:58:00;;;;;;;17.57;15.60;;;;;;;-1.83;92.67;101937.81;4974725;28;20226;-79
2021/12/21 11:00:27;;;;;;;20.50;16.40;;;;;;;-1.75;92.48;101940.81;4973995;28;20249;-79
2021/12/21 11:02:55;;;;;;;23.43;18.43;;;;;;;-1.67;92.23;101960.03;4975843;28;20203;-79
2021/12/21 11:05:21;;;;;;;30.03;19.97;;;;;;;-1.64;91.92;101957.63;4974083;28;20846;-79
2021/12/21 11:07:52;;;;;;;25.53;19.63;;;;;;;-1.62;92.21;101956.06;4974371;28;20270;-79
2021/12/21 11:10:26;;;;;;;21.40;17.90;;;;;;;-1.57;91.98;101952.84;4973786;28;20619;-79
2021/12/21 11:12:54;;;;;;;27.80;20.77;;;;;;;-1.56;91.87;101952.06;4973866;28;20325;-80
2021/12/21 11:15:28;;;;;;;32.47;21.37;;;;;;;-1.35;92.01;101945.53;4974280;28;20207;-79
2021/12/21 11:17:56;;;;;;;37.20;22.53;;;;;;;-1.20;92.28;101941.22;4974278;28;20202;-79
2021/12/21 11:20:22;;;;;;;38.03;23.73;;;;;;;-1.08;92.05;101943.56;4974045;28;20230;-79
2021/12/21 11:22:49;;;;;;;36.80;23.20;;;;;;;-1.02;91.54;101950.69;4973574;28;20646;-79
2021/12/21 11:25:16;;;;;;;35.27;24.83;;;;;;;-0.94;91.61;101954.53;4973752;28;20232;-78
2021/12/21 11:27:44;;;;;;;35.20;22.87;;;;;;;-0.88;91.41;101956.53;4974123;28;20359;-79
2021/12/21 11:30:13;;;;;;;40.27;24.73;;;;;;;-0.87;91.48;101969.44;4974056;28;20208;-79
2021/12/21 11:32:43;;;;;;;35.10;24.20;;;;;;;-0.86;91.50;101965.19;4973673;28;20231;-79
2021/12/21 11:38:02;;;;;;;29.60;21.47;;;;;;;-0.77;90.92;101975.94;4973975;28;20231;-79
2021/12/21 11:40:30;;;;;;;27.53;21.77;;;;;;;-0.75;90.52;101986.25;4973494;28;20963;-77